Avery, Iowa
Current Conditions -  °F | °C
As of 6:53 PM on Saturday 22 Nov 2014 (Local Time) from KOTM Reporting Station
Overcast Overcast  
Wind Chill: 12°   Ceiling: 2700
Heat Index: 12°   Visibility: 10mi
Dew Point: 10°   Wind: 12mph
Humidity: 86%   Direction: 180°S
Pressure: 29.74"   Gusts: NA
Location:  41.0299°N, 92.7795°W
Report Text: KOTM 230053Z AUTO 18010KT 10SM BKN027 OVC034 12/10 A2974 RMK AO2 SLP074 T01220100
Loading
Personal Weather Stations






























Interactive Weather Map New forecast layout! Learn more

10-Day Weather Forecast

Advertisements
Track Severe Weather on mobile